createdAt,value
2019-05-13T00:02:01.447Z,7.20
2019-05-13T00:07:05.022Z,7.11
2019-05-13T00:12:08.034Z,7.00
2019-05-13T00:17:11.668Z,7.06
2019-05-13T00:22:14.923Z,7.22
2019-05-13T00:27:18.573Z,7.26
2019-05-13T00:32:23.627Z,7.57
2019-05-13T00:37:27.197Z,7.53
2019-05-13T00:42:30.438Z,7.55
2019-05-13T00:47:34.214Z,7.63
2019-05-13T00:52:37.498Z,7.46
2019-05-13T00:57:40.354Z,7.71
2019-05-13T01:02:44.602Z,7.50
2019-05-13T01:07:48.666Z,7.70
2019-05-13T01:12:53.835Z,7.35
2019-05-13T01:17:57.574Z,7.45
2019-05-13T01:23:00.668Z,7.39
2019-05-13T01:28:04.566Z,7.20
2019-05-13T01:33:08.301Z,6.96
2019-05-13T01:38:13.332Z,6.74
2019-05-13T01:43:15.943Z,6.65
2019-05-13T01:48:19.436Z,6.33
2019-05-13T01:53:24.351Z,6.35
2019-05-13T01:58:27.139Z,6.55
2019-05-13T02:03:30.291Z,6.53
2019-05-13T02:08:33.692Z,6.81
2019-05-13T02:13:36.742Z,6.80
2019-05-13T02:18:39.978Z,6.77
2019-05-13T02:23:44.317Z,6.45
2019-05-13T02:28:47.963Z,6.59
2019-05-13T02:33:53.078Z,6.33
2019-05-13T02:38:56.481Z,6.14
2019-05-13T02:44:03.218Z,5.84
2019-05-13T02:49:04.810Z,6.32
2019-05-13T02:54:07.427Z,6.67
2019-05-13T02:59:13.152Z,6.95
2019-05-13T03:04:15.410Z,6.83
2019-05-13T03:09:18.666Z,6.66
2019-05-13T03:14:23.916Z,6.61
2019-05-13T03:19:26.930Z,6.91
2019-05-13T03:24:32.914Z,7.07
2019-05-13T03:29:35.347Z,7.16
2019-05-13T03:34:38.505Z,7.25
2019-05-13T03:39:43.491Z,7.21
2019-05-13T03:44:52.447Z,7.34
2019-05-13T03:49:58.521Z,7.32
2019-05-13T03:55:03.165Z,7.53
2019-05-13T04:00:07.348Z,7.70
2019-05-13T04:05:13.422Z,7.59
2019-05-13T04:10:15.207Z,7.61
2019-05-13T04:15:18.800Z,7.49
2019-05-13T04:20:23.352Z,7.78
2019-05-13T04:25:26.411Z,7.39
2019-05-13T04:30:28.913Z,7.60
2019-05-13T04:35:33.538Z,7.83
2019-05-13T04:40:37.181Z,8.02
2019-05-13T04:45:42.855Z,8.09
2019-05-13T04:50:43.948Z,8.18
2019-05-13T04:55:52.600Z,8.30
2019-05-13T05:01:23.762Z,8.42
2019-05-13T05:06:47.913Z,8.55
2019-05-13T05:12:17.597Z,8.64
2019-05-13T05:17:43.195Z,8.93
2019-05-13T05:23:18.452Z,8.87
2019-05-13T05:28:41.640Z,9.06
2019-05-13T05:34:11.628Z,9.20
2019-05-13T05:39:25.958Z,9.24
2019-05-13T05:44:32.464Z,9.53
2019-05-13T05:49:37.444Z,9.39
2019-05-13T05:54:42.212Z,9.36
2019-05-13T05:59:46.436Z,9.67
2019-05-13T06:04:51.994Z,9.87
2019-05-13T06:09:55.893Z,9.77
2019-05-13T06:15:02.422Z,10.20
2019-05-13T06:20:06.779Z,10.67
2019-05-13T06:25:14.110Z,10.15
2019-05-13T06:30:15.677Z,10.78
2019-05-13T06:35:18.936Z,10.82
2019-05-13T06:40:22.145Z,10.57
2019-05-13T06:45:25.317Z,10.33
2019-05-13T06:50:28.246Z,10.49
2019-05-13T06:55:31.620Z,10.80
2019-05-13T07:00:35.181Z,11.22
2019-05-13T07:05:38.288Z,11.34
2019-05-13T07:10:41.561Z,11.18
2019-05-13T07:15:44.116Z,11.09
2019-05-13T07:20:47.654Z,11.45
2019-05-13T07:25:52.427Z,11.60
2019-05-13T07:30:55.254Z,11.55
2019-05-13T07:36:02.368Z,11.76
2019-05-13T07:41:05.261Z,12.18
2019-05-13T07:46:08.112Z,12.03
2019-05-13T07:51:12.066Z,11.78
2019-05-13T07:56:15.738Z,12.07
2019-05-13T08:01:21.909Z,12.30
2019-05-13T08:06:24.298Z,12.54
2019-05-13T08:11:27.980Z,12.39
2019-05-13T08:16:32.320Z,12.55
2019-05-13T08:21:35.956Z,12.71
2019-05-13T08:26:44.907Z,12.72
2019-05-13T08:31:44.045Z,13.31
2019-05-13T08:36:47.227Z,13.60
2019-05-13T08:41:51.598Z,13.37
2019-05-13T08:46:56.286Z,13.33
2019-05-13T08:52:01.604Z,13.45
2019-05-13T08:57:04.998Z,13.56
2019-05-13T09:02:08.194Z,13.48
2019-05-13T09:07:12.148Z,13.46
2019-05-13T09:12:28.635Z,13.59
2019-05-13T09:17:21.219Z,13.62
2019-05-13T09:22:24.482Z,13.84
2019-05-13T09:27:27.972Z,14.10
2019-05-13T09:32:32.970Z,14.09
2019-05-13T09:37:36.448Z,13.94
2019-05-13T09:42:49.112Z,14.39
2019-05-13T09:47:45.667Z,14.40
2019-05-13T09:52:48.867Z,14.93
2019-05-13T09:57:52.618Z,14.88
2019-05-13T10:02:55.923Z,15.28
2019-05-13T10:08:02.111Z,15.13
2019-05-13T10:13:12.007Z,15.09
2019-05-13T10:18:08.987Z,14.75
2019-05-13T10:23:12.878Z,14.82
2019-05-13T10:28:16.997Z,14.91
2019-05-13T10:33:22.131Z,14.72
2019-05-13T10:38:27.881Z,14.77
2019-05-13T10:43:31.759Z,15.50
2019-05-13T10:48:36.075Z,15.50
2019-05-13T10:53:42.015Z,16.26
2019-05-13T10:58:46.066Z,15.63
2019-05-13T11:03:52.424Z,15.69
2019-05-13T11:08:54.341Z,16.23
2019-05-13T11:14:06.703Z,16.31
2019-05-13T11:19:03.349Z,16.58
2019-05-13T11:24:08.290Z,17.08
2019-05-13T11:29:12.265Z,16.19
2019-05-13T11:34:15.626Z,16.95
2019-05-13T11:39:21.640Z,17.18
2019-05-13T11:44:24.878Z,17.36
2019-05-13T11:49:27.575Z,17.64
2019-05-13T11:54:30.451Z,17.53
2019-05-13T11:59:33.885Z,17.76
2019-05-13T12:04:37.165Z,18.01
2019-05-13T12:09:40.772Z,18.45
2019-05-13T12:15:16.282Z,18.57
2019-05-13T12:19:49.387Z,18.31
2019-05-13T12:24:53.007Z,18.46
2019-05-13T12:29:55.943Z,18.96
2019-05-13T12:34:59.499Z,19.26
2019-05-13T12:40:03.394Z,19.41
2019-05-13T12:45:10.037Z,18.89
2019-05-13T12:50:13.591Z,18.60
2019-05-13T12:55:16.773Z,19.01
2019-05-13T13:00:23.662Z,19.12
2019-05-13T13:05:33.170Z,19.43
2019-05-13T13:10:34.548Z,19.61
2019-05-13T13:15:42.257Z,20.58
2019-05-13T13:20:42.482Z,18.67
2019-05-13T13:25:52.652Z,19.10
2019-05-13T13:30:52.820Z,17.97
2019-05-13T13:36:03.943Z,19.81
2019-05-13T13:41:04.556Z,20.38
2019-05-13T13:46:22.074Z,20.42
2019-05-13T13:51:14.186Z,18.79
2019-05-13T13:56:17.442Z,19.92
2019-05-13T14:01:27.004Z,20.30
2019-05-13T14:07:22.636Z,19.38
2019-05-13T14:11:33.127Z,20.38
2019-05-13T14:16:35.588Z,20.06
2019-05-13T14:21:41.474Z,19.10
2019-05-13T14:26:44.307Z,20.69
2019-05-13T14:31:52.052Z,21.53
2019-05-13T14:36:55.839Z,19.93
2019-05-13T14:41:59.080Z,18.09
2019-05-13T14:47:02.352Z,18.93
2019-05-13T14:52:05.637Z,18.97
2019-05-13T14:57:11.869Z,20.83
2019-05-13T15:02:14.267Z,19.34
2019-05-13T15:07:17.660Z,19.55
2019-05-13T15:12:21.586Z,18.53
2019-05-13T15:17:24.771Z,18.87
2019-05-13T15:22:28.492Z,19.18
2019-05-13T15:27:31.825Z,18.36
2019-05-13T15:32:35.322Z,18.09
2019-05-13T15:37:38.552Z,17.04
2019-05-13T15:42:41.789Z,16.66
2019-05-13T15:47:45.077Z,16.47
2019-05-13T15:52:48.590Z,16.23
2019-05-13T15:57:52.261Z,16.58
2019-05-13T16:02:55.492Z,17.48
2019-05-13T16:08:01.347Z,16.57
2019-05-13T16:13:04.482Z,16.13
2019-05-13T16:18:07.763Z,15.67
2019-05-13T16:23:12.534Z,15.61
2019-05-13T16:28:15.923Z,15.36
2019-05-13T16:33:19.429Z,15.07
2019-05-13T16:38:22.263Z,15.42
2019-05-13T16:43:25.434Z,16.70
2019-05-13T16:48:28.167Z,17.46
2019-05-13T16:53:31.825Z,17.20
2019-05-13T16:58:35.567Z,16.58
2019-05-13T17:03:41.392Z,16.17
2019-05-13T17:08:44.132Z,16.30
2019-05-13T17:13:47.507Z,17.33
2019-05-13T17:18:52.026Z,17.54
2019-05-13T17:23:55.769Z,18.01
2019-05-13T17:29:01.267Z,17.55
2019-05-13T17:34:04.029Z,17.45
2019-05-13T17:39:07.991Z,16.70
2019-05-13T17:44:11.825Z,16.71
2019-05-13T17:49:14.883Z,16.57
2019-05-13T17:54:18.679Z,16.13
2019-05-13T17:59:22.525Z,15.72
2019-05-13T18:04:25.960Z,15.13
2019-05-13T18:09:31.547Z,15.13
2019-05-13T18:14:34.202Z,14.82
2019-05-13T18:19:38.334Z,14.46
2019-05-13T18:24:41.447Z,14.01
2019-05-13T18:29:44.897Z,14.04
2019-05-13T18:34:48.483Z,14.00
2019-05-13T18:39:52.080Z,13.91
2019-05-13T18:44:56.449Z,13.70
2019-05-13T18:50:02.181Z,13.53
2019-05-13T18:55:05.751Z,13.44
2019-05-13T19:00:11.171Z,13.40
2019-05-13T19:05:14.195Z,13.20
2019-05-13T19:10:17.126Z,13.02
2019-05-13T19:15:21.287Z,13.14
2019-05-13T19:20:26.750Z,12.82
2019-05-13T19:25:31.412Z,12.83
2019-05-13T19:30:34.971Z,12.65
2019-05-13T19:35:38.359Z,12.58
2019-05-13T19:40:41.917Z,12.45
2019-05-13T19:45:47.243Z,12.36
2019-05-13T19:50:52.122Z,12.31
2019-05-13T19:55:55.525Z,12.23
2019-05-13T20:00:58.408Z,12.33
2019-05-13T20:06:02.384Z,12.23
2019-05-13T20:11:06.065Z,11.99
2019-05-13T20:16:11.498Z,11.80
2019-05-13T20:21:14.727Z,11.76
2019-05-13T20:26:18.227Z,11.48
2019-05-13T20:31:21.933Z,11.48
2019-05-13T20:36:24.875Z,11.33
2019-05-13T20:41:27.766Z,11.28
2019-05-13T20:46:32.661Z,11.08
2019-05-13T20:51:35.820Z,11.03
2019-05-13T20:56:39.048Z,10.91
2019-05-13T21:01:42.639Z,10.98
2019-05-13T21:06:45.541Z,10.91
2019-05-13T21:11:51.345Z,10.87
2019-05-13T21:16:54.011Z,10.83
2019-05-13T21:21:56.907Z,10.86
2019-05-13T21:27:01.782Z,10.77
2019-05-13T21:32:04.446Z,10.68
2019-05-13T21:37:06.932Z,10.69
2019-05-13T21:42:11.441Z,10.67
2019-05-13T21:47:14.821Z,10.51
2019-05-13T21:52:18.443Z,10.40
2019-05-13T21:57:24.004Z,10.31
2019-05-13T22:02:27.224Z,10.25
2019-05-13T22:07:31.505Z,10.13
2019-05-13T22:12:34.868Z,10.13
2019-05-13T22:17:37.890Z,9.99
2019-05-13T22:22:41.588Z,9.95
2019-05-13T22:27:44.545Z,9.78
2019-05-13T22:32:47.804Z,9.74
2019-05-13T22:37:51.295Z,9.67
2019-05-13T22:42:56.993Z,9.53
2019-05-13T22:48:02.641Z,9.48
2019-05-13T22:53:07.365Z,9.49
2019-05-13T22:58:10.733Z,9.41
2019-05-13T23:03:13.411Z,9.28
2019-05-13T23:08:16.886Z,9.26
2019-05-13T23:13:19.687Z,9.16
2019-05-13T23:18:22.828Z,9.23
2019-05-13T23:23:25.892Z,9.17
2019-05-13T23:28:29.569Z,9.03
2019-05-13T23:33:32.460Z,8.83
2019-05-13T23:38:35.781Z,8.73
2019-05-13T23:43:38.972Z,8.66
2019-05-13T23:48:42.791Z,8.62
2019-05-13T23:53:45.708Z,8.69
2019-05-13T23:58:48.387Z,8.66
